sensor_id;sensor_type;location;lat;lon;timestamp;P1;durP1;ratioP1;P2;durP2;ratioP2
84353;SDS011;74538;43.522;1.516;2024-01-11T00:00:06;10.30;;;6.83;;
84353;SDS011;74538;43.522;1.516;2024-01-11T00:02:32;11.10;;;6.95;;
84353;SDS011;74538;43.522;1.516;2024-01-11T00:04:57;10.63;;;7.27;;
84353;SDS011;74538;43.522;1.516;2024-01-11T00:07:23;9.80;;;6.57;;
84353;SDS011;74538;43.522;1.516;2024-01-11T00:09:48;9.57;;;7.00;;
84353;SDS011;74538;43.522;1.516;2024-01-11T00:12:13;10.43;;;6.93;;
84353;SDS011;74538;43.522;1.516;2024-01-11T00:14:39;10.27;;;6.97;;
84353;SDS011;74538;43.522;1.516;2024-01-11T00:17:05;9.50;;;6.40;;
84353;SDS011;74538;43.522;1.516;2024-01-11T00:19:30;10.80;;;7.03;;
84353;SDS011;74538;43.522;1.516;2024-01-11T00:21:56;9.20;;;6.55;;
84353;SDS011;74538;43.522;1.516;2024-01-11T00:24:22;10.07;;;6.87;;
84353;SDS011;74538;43.522;1.516;2024-01-11T00:26:47;9.47;;;7.30;;
84353;SDS011;74538;43.522;1.516;2024-01-11T00:29:13;11.47;;;6.87;;
84353;SDS011;74538;43.522;1.516;2024-01-11T00:31:38;10.75;;;6.78;;
84353;SDS011;74538;43.522;1.516;2024-01-11T00:34:04;9.87;;;6.90;;
84353;SDS011;74538;43.522;1.516;2024-01-11T00:36:29;10.80;;;6.80;;
84353;SDS011;74538;43.522;1.516;2024-01-11T00:38:55;9.27;;;6.68;;
84353;SDS011;74538;43.522;1.516;2024-01-11T00:41:21;9.65;;;6.40;;
84353;SDS011;74538;43.522;1.516;2024-01-11T00:43:46;10.87;;;6.20;;
84353;SDS011;74538;43.522;1.516;2024-01-11T00:46:12;9.23;;;6.27;;
84353;SDS011;74538;43.522;1.516;2024-01-11T00:48:37;9.40;;;6.50;;
84353;SDS011;74538;43.522;1.516;2024-01-11T00:51:06;9.23;;;6.60;;
84353;SDS011;74538;43.522;1.516;2024-01-11T00:53:32;9.35;;;6.38;;
84353;SDS011;74538;43.522;1.516;2024-01-11T00:55:58;10.73;;;6.50;;
84353;SDS011;74538;43.522;1.516;2024-01-11T00:58:24;9.65;;;6.57;;
84353;SDS011;74538;43.522;1.516;2024-01-11T01:00:49;9.00;;;6.53;;
84353;SDS011;74538;43.522;1.516;2024-01-11T01:03:15;10.07;;;6.67;;
84353;SDS011;74538;43.522;1.516;2024-01-11T01:05:41;9.10;;;6.33;;
84353;SDS011;74538;43.522;1.516;2024-01-11T01:08:07;9.03;;;6.23;;
84353;SDS011;74538;43.522;1.516;2024-01-11T01:10:32;9.93;;;6.70;;
84353;SDS011;74538;43.522;1.516;2024-01-11T01:12:58;9.43;;;5.90;;
84353;SDS011;74538;43.522;1.516;2024-01-11T01:15:23;8.80;;;6.47;;
84353;SDS011;74538;43.522;1.516;2024-01-11T01:17:48;7.80;;;5.60;;
84353;SDS011;74538;43.522;1.516;2024-01-11T01:20:14;9.23;;;6.78;;
84353;SDS011;74538;43.522;1.516;2024-01-11T01:22:39;10.13;;;6.43;;
84353;SDS011;74538;43.522;1.516;2024-01-11T01:25:05;9.07;;;6.30;;
84353;SDS011;74538;43.522;1.516;2024-01-11T01:27:31;9.02;;;6.18;;
84353;SDS011;74538;43.522;1.516;2024-01-11T01:29:56;8.90;;;6.30;;
84353;SDS011;74538;43.522;1.516;2024-01-11T01:32:21;9.90;;;6.43;;
84353;SDS011;74538;43.522;1.516;2024-01-11T01:34:47;9.25;;;6.15;;
84353;SDS011;74538;43.522;1.516;2024-01-11T01:37:12;10.67;;;6.20;;
84353;SDS011;74538;43.522;1.516;2024-01-11T01:39:38;8.67;;;6.13;;
84353;SDS011;74538;43.522;1.516;2024-01-11T01:42:04;8.88;;;6.05;;
84353;SDS011;74538;43.522;1.516;2024-01-11T01:44:30;9.60;;;6.93;;
84353;SDS011;74538;43.522;1.516;2024-01-11T01:46:55;8.87;;;6.20;;
84353;SDS011;74538;43.522;1.516;2024-01-11T01:49:21;9.27;;;6.60;;
84353;SDS011;74538;43.522;1.516;2024-01-11T01:51:47;9.30;;;6.00;;
84353;SDS011;74538;43.522;1.516;2024-01-11T01:54:13;8.57;;;6.20;;
84353;SDS011;74538;43.522;1.516;2024-01-11T01:56:39;9.35;;;6.10;;
84353;SDS011;74538;43.522;1.516;2024-01-11T01:59:05;9.10;;;6.33;;
84353;SDS011;74538;43.522;1.516;2024-01-11T02:01:30;10.02;;;6.55;;
84353;SDS011;74538;43.522;1.516;2024-01-11T02:03:56;8.97;;;6.17;;
84353;SDS011;74538;43.522;1.516;2024-01-11T02:06:23;9.35;;;6.30;;
84353;SDS011;74538;43.522;1.516;2024-01-11T02:08:53;8.38;;;6.03;;
84353;SDS011;74538;43.522;1.516;2024-01-11T02:11:21;10.90;;;6.95;;
84353;SDS011;74538;43.522;1.516;2024-01-11T02:13:48;9.37;;;6.00;;
84353;SDS011;74538;43.522;1.516;2024-01-11T02:16:15;9.88;;;6.20;;
84353;SDS011;74538;43.522;1.516;2024-01-11T02:18:40;8.43;;;5.70;;
84353;SDS011;74538;43.522;1.516;2024-01-11T02:21:06;9.13;;;6.40;;
84353;SDS011;74538;43.522;1.516;2024-01-11T02:23:36;8.38;;;5.97;;
84353;SDS011;74538;43.522;1.516;2024-01-11T02:26:11;8.27;;;5.67;;
84353;SDS011;74538;43.522;1.516;2024-01-11T02:28:37;9.27;;;5.80;;
84353;SDS011;74538;43.522;1.516;2024-01-11T02:31:02;8.77;;;6.17;;
84353;SDS011;74538;43.522;1.516;2024-01-11T02:33:28;10.20;;;6.07;;
84353;SDS011;74538;43.522;1.516;2024-01-11T02:35:53;9.67;;;6.13;;
84353;SDS011;74538;43.522;1.516;2024-01-11T02:38:19;8.40;;;5.93;;
84353;SDS011;74538;43.522;1.516;2024-01-11T02:40:44;8.10;;;5.45;;
84353;SDS011;74538;43.522;1.516;2024-01-11T02:43:11;8.90;;;5.88;;
84353;SDS011;74538;43.522;1.516;2024-01-11T02:45:37;10.93;;;6.07;;
84353;SDS011;74538;43.522;1.516;2024-01-11T02:48:03;8.77;;;6.18;;
84353;SDS011;74538;43.522;1.516;2024-01-11T02:50:28;8.50;;;5.73;;
84353;SDS011;74538;43.522;1.516;2024-01-11T02:52:54;8.57;;;5.88;;
84353;SDS011;74538;43.522;1.516;2024-01-11T02:55:19;8.33;;;6.00;;
84353;SDS011;74538;43.522;1.516;2024-01-11T02:57:44;8.97;;;6.30;;
84353;SDS011;74538;43.522;1.516;2024-01-11T03:00:10;7.63;;;5.55;;
84353;SDS011;74538;43.522;1.516;2024-01-11T03:02:37;8.73;;;6.00;;
84353;SDS011;74538;43.522;1.516;2024-01-11T03:05:03;8.57;;;6.20;;
84353;SDS011;74538;43.522;1.516;2024-01-11T03:07:29;8.93;;;5.75;;
84353;SDS011;74538;43.522;1.516;2024-01-11T03:09:55;8.88;;;5.90;;
84353;SDS011;74538;43.522;1.516;2024-01-11T03:12:21;8.40;;;5.40;;
84353;SDS011;74538;43.522;1.516;2024-01-11T03:14:47;8.77;;;5.35;;
84353;SDS011;74538;43.522;1.516;2024-01-11T03:17:13;8.15;;;6.22;;
84353;SDS011;74538;43.522;1.516;2024-01-11T03:19:41;8.33;;;5.73;;
84353;SDS011;74538;43.522;1.516;2024-01-11T03:22:06;7.82;;;5.35;;
84353;SDS011;74538;43.522;1.516;2024-01-11T03:24:32;9.43;;;6.07;;
84353;SDS011;74538;43.522;1.516;2024-01-11T03:26:58;9.40;;;5.70;;
84353;SDS011;74538;43.522;1.516;2024-01-11T03:29:23;8.00;;;5.67;;
84353;SDS011;74538;43.522;1.516;2024-01-11T03:31:49;9.53;;;6.17;;
84353;SDS011;74538;43.522;1.516;2024-01-11T03:34:14;7.57;;;5.40;;
84353;SDS011;74538;43.522;1.516;2024-01-11T03:36:40;7.93;;;5.37;;
84353;SDS011;74538;43.522;1.516;2024-01-11T03:39:05;7.60;;;5.20;;
84353;SDS011;74538;43.522;1.516;2024-01-11T03:41:31;7.53;;;5.30;;
84353;SDS011;74538;43.522;1.516;2024-01-11T03:43:56;8.03;;;5.50;;
84353;SDS011;74538;43.522;1.516;2024-01-11T03:46:22;8.35;;;6.18;;
84353;SDS011;74538;43.522;1.516;2024-01-11T03:48:48;8.30;;;5.43;;
84353;SDS011;74538;43.522;1.516;2024-01-11T03:51:13;8.43;;;5.90;;
84353;SDS011;74538;43.522;1.516;2024-01-11T03:53:38;8.33;;;5.57;;
84353;SDS011;74538;43.522;1.516;2024-01-11T03:56:04;7.35;;;4.93;;
84353;SDS011;74538;43.522;1.516;2024-01-11T03:58:30;8.43;;;5.70;;
84353;SDS011;74538;43.522;1.516;2024-01-11T04:00:55;9.70;;;6.03;;
84353;SDS011;74538;43.522;1.516;2024-01-11T04:03:21;7.63;;;5.50;;
84353;SDS011;74538;43.522;1.516;2024-01-11T04:05:46;8.50;;;6.00;;
84353;SDS011;74538;43.522;1.516;2024-01-11T04:08:11;8.50;;;5.70;;
84353;SDS011;74538;43.522;1.516;2024-01-11T04:10:37;7.53;;;5.57;;
84353;SDS011;74538;43.522;1.516;2024-01-11T04:13:02;7.70;;;5.60;;
84353;SDS011;74538;43.522;1.516;2024-01-11T04:15:28;7.80;;;5.57;;
84353;SDS011;74538;43.522;1.516;2024-01-11T04:17:53;7.53;;;5.00;;
84353;SDS011;74538;43.522;1.516;2024-01-11T04:20:19;9.13;;;6.10;;
84353;SDS011;74538;43.522;1.516;2024-01-11T04:22:44;7.97;;;5.70;;
84353;SDS011;74538;43.522;1.516;2024-01-11T04:25:10;8.80;;;5.70;;
84353;SDS011;74538;43.522;1.516;2024-01-11T04:27:35;8.37;;;5.90;;
84353;SDS011;74538;43.522;1.516;2024-01-11T04:30:00;8.15;;;5.25;;
84353;SDS011;74538;43.522;1.516;2024-01-11T04:32:26;7.77;;;5.70;;
84353;SDS011;74538;43.522;1.516;2024-01-11T04:34:51;8.10;;;5.73;;
84353;SDS011;74538;43.522;1.516;2024-01-11T04:37:17;7.20;;;5.20;;
84353;SDS011;74538;43.522;1.516;2024-01-11T04:39:43;7.95;;;5.70;;
84353;SDS011;74538;43.522;1.516;2024-01-11T04:42:09;8.90;;;5.80;;
84353;SDS011;74538;43.522;1.516;2024-01-11T04:44:34;8.17;;;5.57;;
84353;SDS011;74538;43.522;1.516;2024-01-11T04:46:59;7.47;;;5.35;;
84353;SDS011;74538;43.522;1.516;2024-01-11T04:49:25;8.27;;;5.70;;
84353;SDS011;74538;43.522;1.516;2024-01-11T04:51:50;8.37;;;5.80;;
84353;SDS011;74538;43.522;1.516;2024-01-11T04:54:16;8.43;;;5.75;;
84353;SDS011;74538;43.522;1.516;2024-01-11T04:56:41;7.37;;;5.10;;
84353;SDS011;74538;43.522;1.516;2024-01-11T04:59:07;7.90;;;5.47;;
84353;SDS011;74538;43.522;1.516;2024-01-11T05:01:32;8.33;;;5.57;;
84353;SDS011;74538;43.522;1.516;2024-01-11T05:03:57;7.50;;;5.40;;
84353;SDS011;74538;43.522;1.516;2024-01-11T05:06:23;6.83;;;5.00;;
84353;SDS011;74538;43.522;1.516;2024-01-11T05:08:50;9.35;;;5.90;;
84353;SDS011;74538;43.522;1.516;2024-01-11T05:13:46;7.07;;;5.20;;
84353;SDS011;74538;43.522;1.516;2024-01-11T05:16:19;7.47;;;5.07;;
84353;SDS011;74538;43.522;1.516;2024-01-11T05:18:45;7.20;;;5.03;;
84353;SDS011;74538;43.522;1.516;2024-01-11T05:21:10;8.53;;;5.50;;
84353;SDS011;74538;43.522;1.516;2024-01-11T05:23:36;7.60;;;5.05;;
84353;SDS011;74538;43.522;1.516;2024-01-11T05:26:02;7.80;;;5.00;;
84353;SDS011;74538;43.522;1.516;2024-01-11T05:28:27;7.88;;;5.45;;
84353;SDS011;74538;43.522;1.516;2024-01-11T05:30:53;7.50;;;5.10;;
84353;SDS011;74538;43.522;1.516;2024-01-11T05:33:18;7.60;;;5.20;;
84353;SDS011;74538;43.522;1.516;2024-01-11T05:35:44;7.00;;;4.87;;
84353;SDS011;74538;43.522;1.516;2024-01-11T05:38:09;8.63;;;5.20;;
84353;SDS011;74538;43.522;1.516;2024-01-11T05:40:34;8.30;;;5.38;;
84353;SDS011;74538;43.522;1.516;2024-01-11T05:43:00;6.20;;;4.50;;
84353;SDS011;74538;43.522;1.516;2024-01-11T05:45:25;7.53;;;5.17;;
84353;SDS011;74538;43.522;1.516;2024-01-11T05:47:51;7.33;;;4.83;;
84353;SDS011;74538;43.522;1.516;2024-01-11T05:50:16;5.90;;;4.40;;
84353;SDS011;74538;43.522;1.516;2024-01-11T05:52:42;7.05;;;4.75;;
84353;SDS011;74538;43.522;1.516;2024-01-11T05:55:07;7.30;;;4.80;;
84353;SDS011;74538;43.522;1.516;2024-01-11T05:57:33;7.00;;;4.93;;
84353;SDS011;74538;43.522;1.516;2024-01-11T05:59:58;6.30;;;4.87;;
84353;SDS011;74538;43.522;1.516;2024-01-11T06:02:23;6.77;;;4.40;;
84353;SDS011;74538;43.522;1.516;2024-01-11T06:04:49;6.77;;;4.33;;
84353;SDS011;74538;43.522;1.516;2024-01-11T06:07:14;6.87;;;4.73;;
84353;SDS011;74538;43.522;1.516;2024-01-11T06:09:40;6.00;;;4.40;;
84353;SDS011;74538;43.522;1.516;2024-01-11T06:12:05;7.70;;;4.90;;
84353;SDS011;74538;43.522;1.516;2024-01-11T06:14:31;7.53;;;4.80;;
84353;SDS011;74538;43.522;1.516;2024-01-11T06:16:56;6.80;;;4.30;;
84353;SDS011;74538;43.522;1.516;2024-01-11T06:19:22;6.63;;;4.50;;
84353;SDS011;74538;43.522;1.516;2024-01-11T06:21:48;6.95;;;4.40;;
84353;SDS011;74538;43.522;1.516;2024-01-11T06:24:13;6.70;;;4.43;;
84353;SDS011;74538;43.522;1.516;2024-01-11T06:26:39;6.23;;;4.60;;
84353;SDS011;74538;43.522;1.516;2024-01-11T06:29:04;6.18;;;4.38;;
84353;SDS011;74538;43.522;1.516;2024-01-11T06:31:29;6.40;;;4.83;;
84353;SDS011;74538;43.522;1.516;2024-01-11T06:33:55;7.03;;;4.77;;
84353;SDS011;74538;43.522;1.516;2024-01-11T06:36:21;6.30;;;4.23;;
84353;SDS011;74538;43.522;1.516;2024-01-11T06:38:46;6.70;;;4.68;;
84353;SDS011;74538;43.522;1.516;2024-01-11T06:41:11;6.43;;;3.83;;
84353;SDS011;74538;43.522;1.516;2024-01-11T06:43:37;5.50;;;3.97;;
84353;SDS011;74538;43.522;1.516;2024-01-11T06:46:05;5.55;;;3.80;;
84353;SDS011;74538;43.522;1.516;2024-01-11T06:48:34;5.83;;;3.67;;
84353;SDS011;74538;43.522;1.516;2024-01-11T06:50:59;6.72;;;4.32;;
84353;SDS011;74538;43.522;1.516;2024-01-11T06:53:25;6.53;;;4.10;;
84353;SDS011;74538;43.522;1.516;2024-01-11T06:55:50;6.07;;;4.13;;
84353;SDS011;74538;43.522;1.516;2024-01-11T06:58:17;6.88;;;4.10;;
84353;SDS011;74538;43.522;1.516;2024-01-11T07:00:42;6.10;;;3.97;;
84353;SDS011;74538;43.522;1.516;2024-01-11T07:03:09;5.53;;;3.80;;
84353;SDS011;74538;43.522;1.516;2024-01-11T07:05:35;5.43;;;3.72;;
84353;SDS011;74538;43.522;1.516;2024-01-11T07:08:01;5.50;;;3.60;;
84353;SDS011;74538;43.522;1.516;2024-01-11T07:10:26;6.10;;;4.25;;
84353;SDS011;74538;43.522;1.516;2024-01-11T07:12:52;5.17;;;3.53;;
84353;SDS011;74538;43.522;1.516;2024-01-11T07:15:17;5.20;;;3.17;;
84353;SDS011;74538;43.522;1.516;2024-01-11T07:17:43;6.07;;;4.03;;
84353;SDS011;74538;43.522;1.516;2024-01-11T07:20:08;5.20;;;3.50;;
84353;SDS011;74538;43.522;1.516;2024-01-11T07:22:35;4.83;;;3.20;;
84353;SDS011;74538;43.522;1.516;2024-01-11T07:25:00;5.60;;;3.30;;
84353;SDS011;74538;43.522;1.516;2024-01-11T07:27:26;5.30;;;3.30;;
84353;SDS011;74538;43.522;1.516;2024-01-11T07:29:51;4.93;;;3.30;;
84353;SDS011;74538;43.522;1.516;2024-01-11T07:32:17;5.60;;;3.73;;
84353;SDS011;74538;43.522;1.516;2024-01-11T07:34:42;5.45;;;3.28;;
84353;SDS011;74538;43.522;1.516;2024-01-11T07:37:07;5.03;;;3.37;;
84353;SDS011;74538;43.522;1.516;2024-01-11T07:39:33;5.33;;;3.57;;
84353;SDS011;74538;43.522;1.516;2024-01-11T07:41:59;5.05;;;3.38;;
84353;SDS011;74538;43.522;1.516;2024-01-11T07:44:24;4.93;;;3.27;;
84353;SDS011;74538;43.522;1.516;2024-01-11T07:46:50;5.63;;;3.57;;
84353;SDS011;74538;43.522;1.516;2024-01-11T07:49:15;5.40;;;3.45;;
84353;SDS011;74538;43.522;1.516;2024-01-11T07:51:41;4.87;;;3.20;;
84353;SDS011;74538;43.522;1.516;2024-01-11T07:54:06;5.53;;;3.93;;
84353;SDS011;74538;43.522;1.516;2024-01-11T07:56:32;8.25;;;5.55;;
84353;SDS011;74538;43.522;1.516;2024-01-11T07:58:57;8.50;;;5.93;;
84353;SDS011;74538;43.522;1.516;2024-01-11T08:01:24;7.85;;;5.55;;
84353;SDS011;74538;43.522;1.516;2024-01-11T08:03:50;7.73;;;5.33;;
84353;SDS011;74538;43.522;1.516;2024-01-11T08:06:17;7.50;;;5.03;;
84353;SDS011;74538;43.522;1.516;2024-01-11T08:08:42;6.83;;;4.60;;
84353;SDS011;74538;43.522;1.516;2024-01-11T08:11:08;6.35;;;4.07;;
84353;SDS011;74538;43.522;1.516;2024-01-11T08:13:34;6.45;;;4.30;;
84353;SDS011;74538;43.522;1.516;2024-01-11T08:16:03;6.97;;;4.20;;
84353;SDS011;74538;43.522;1.516;2024-01-11T08:18:30;5.57;;;4.20;;
84353;SDS011;74538;43.522;1.516;2024-01-11T08:20:56;6.00;;;4.00;;
84353;SDS011;74538;43.522;1.516;2024-01-11T08:23:21;6.20;;;4.43;;
84353;SDS011;74538;43.522;1.516;2024-01-11T08:25:47;6.63;;;4.50;;
84353;SDS011;74538;43.522;1.516;2024-01-11T08:28:12;6.07;;;4.10;;
84353;SDS011;74538;43.522;1.516;2024-01-11T08:30:37;4.87;;;3.33;;
84353;SDS011;74538;43.522;1.516;2024-01-11T08:33:03;5.60;;;3.90;;
84353;SDS011;74538;43.522;1.516;2024-01-11T08:35:29;6.20;;;4.00;;
84353;SDS011;74538;43.522;1.516;2024-01-11T08:37:57;6.35;;;4.32;;
84353;SDS011;74538;43.522;1.516;2024-01-11T08:40:22;5.87;;;3.90;;
84353;SDS011;74538;43.522;1.516;2024-01-11T08:42:47;5.60;;;3.80;;
84353;SDS011;74538;43.522;1.516;2024-01-11T08:45:13;5.80;;;4.13;;
84353;SDS011;74538;43.522;1.516;2024-01-11T08:47:43;6.38;;;4.43;;
84353;SDS011;74538;43.522;1.516;2024-01-11T08:50:12;6.60;;;4.05;;
84353;SDS011;74538;43.522;1.516;2024-01-11T08:52:38;5.78;;;4.18;;
84353;SDS011;74538;43.522;1.516;2024-01-11T08:55:04;6.90;;;4.53;;
84353;SDS011;74538;43.522;1.516;2024-01-11T08:57:30;6.43;;;4.68;;
84353;SDS011;74538;43.522;1.516;2024-01-11T08:59:56;6.07;;;4.40;;
84353;SDS011;74538;43.522;1.516;2024-01-11T09:02:21;6.82;;;4.35;;
84353;SDS011;74538;43.522;1.516;2024-01-11T09:04:47;7.03;;;4.53;;
84353;SDS011;74538;43.522;1.516;2024-01-11T09:07:13;7.50;;;5.13;;
84353;SDS011;74538;43.522;1.516;2024-01-11T09:09:39;7.80;;;5.10;;
84353;SDS011;74538;43.522;1.516;2024-01-11T09:12:05;6.45;;;4.72;;
84353;SDS011;74538;43.522;1.516;2024-01-11T09:14:31;6.97;;;4.55;;
84353;SDS011;74538;43.522;1.516;2024-01-11T09:16:57;6.37;;;4.37;;
84353;SDS011;74538;43.522;1.516;2024-01-11T09:19:23;5.90;;;3.90;;
84353;SDS011;74538;43.522;1.516;2024-01-11T09:21:49;5.75;;;3.90;;
84353;SDS011;74538;43.522;1.516;2024-01-11T09:24:14;5.90;;;4.40;;
84353;SDS011;74538;43.522;1.516;2024-01-11T09:26:40;6.32;;;4.45;;
84353;SDS011;74538;43.522;1.516;2024-01-11T09:29:05;6.83;;;4.27;;
84353;SDS011;74538;43.522;1.516;2024-01-11T09:31:31;5.93;;;4.20;;
84353;SDS011;74538;43.522;1.516;2024-01-11T09:33:56;6.83;;;4.77;;
84353;SDS011;74538;43.522;1.516;2024-01-11T09:36:22;5.60;;;3.60;;
84353;SDS011;74538;43.522;1.516;2024-01-11T09:38:47;5.93;;;4.10;;
84353;SDS011;74538;43.522;1.516;2024-01-11T09:41:14;7.28;;;4.35;;
84353;SDS011;74538;43.522;1.516;2024-01-11T09:43:40;5.45;;;3.95;;
84353;SDS011;74538;43.522;1.516;2024-01-11T09:46:08;5.20;;;3.60;;
84353;SDS011;74538;43.522;1.516;2024-01-11T09:48:35;5.47;;;4.00;;
84353;SDS011;74538;43.522;1.516;2024-01-11T09:51:12;5.50;;;3.63;;
84353;SDS011;74538;43.522;1.516;2024-01-11T09:53:38;5.38;;;3.35;;
84353;SDS011;74538;43.522;1.516;2024-01-11T09:56:07;5.18;;;3.30;;
84353;SDS011;74538;43.522;1.516;2024-01-11T09:58:34;5.95;;;3.67;;
84353;SDS011;74538;43.522;1.516;2024-01-11T10:01:04;6.13;;;3.80;;
84353;SDS011;74538;43.522;1.516;2024-01-11T10:03:34;5.67;;;3.90;;
84353;SDS011;74538;43.522;1.516;2024-01-11T10:05:59;5.90;;;3.50;;
84353;SDS011;74538;43.522;1.516;2024-01-11T10:08:27;5.37;;;3.47;;
84353;SDS011;74538;43.522;1.516;2024-01-11T10:10:54;4.82;;;3.10;;
84353;SDS011;74538;43.522;1.516;2024-01-11T10:13:25;5.50;;;3.60;;
84353;SDS011;74538;43.522;1.516;2024-01-11T10:15:52;6.00;;;3.33;;
84353;SDS011;74538;43.522;1.516;2024-01-11T10:18:18;5.22;;;3.20;;
84353;SDS011;74538;43.522;1.516;2024-01-11T10:20:48;6.13;;;3.20;;
84353;SDS011;74538;43.522;1.516;2024-01-11T10:23:13;4.97;;;3.35;;
84353;SDS011;74538;43.522;1.516;2024-01-11T10:25:39;5.90;;;3.40;;
84353;SDS011;74538;43.522;1.516;2024-01-11T10:28:07;5.25;;;3.13;;
84353;SDS011;74538;43.522;1.516;2024-01-11T10:30:33;5.20;;;3.23;;
84353;SDS011;74538;43.522;1.516;2024-01-11T10:32:59;5.00;;;3.17;;
84353;SDS011;74538;43.522;1.516;2024-01-11T10:35:25;4.77;;;3.07;;
84353;SDS011;74538;43.522;1.516;2024-01-11T10:37:50;6.07;;;3.20;;
84353;SDS011;74538;43.522;1.516;2024-01-11T10:40:19;4.78;;;2.88;;
84353;SDS011;74538;43.522;1.516;2024-01-11T10:42:52;4.63;;;2.90;;
84353;SDS011;74538;43.522;1.516;2024-01-11T10:45:18;5.18;;;2.80;;
84353;SDS011;74538;43.522;1.516;2024-01-11T10:50:18;5.05;;;3.20;;
84353;SDS011;74538;43.522;1.516;2024-01-11T10:52:50;4.65;;;3.05;;
84353;SDS011;74538;43.522;1.516;2024-01-11T10:55:23;5.00;;;3.17;;
84353;SDS011;74538;43.522;1.516;2024-01-11T10:57:50;4.90;;;3.20;;
84353;SDS011;74538;43.522;1.516;2024-01-11T11:00:16;4.75;;;2.60;;
84353;SDS011;74538;43.522;1.516;2024-01-11T11:02:43;4.78;;;2.80;;
84353;SDS011;74538;43.522;1.516;2024-01-11T11:05:11;4.43;;;2.83;;
84353;SDS011;74538;43.522;1.516;2024-01-11T11:07:38;4.90;;;2.80;;
84353;SDS011;74538;43.522;1.516;2024-01-11T11:10:04;4.85;;;2.97;;
84353;SDS011;74538;43.522;1.516;2024-01-11T11:12:32;4.40;;;2.88;;
84353;SDS011;74538;43.522;1.516;2024-01-11T11:14:59;4.68;;;2.70;;
84353;SDS011;74538;43.522;1.516;2024-01-11T11:17:27;4.13;;;2.47;;
84353;SDS011;74538;43.522;1.516;2024-01-11T11:19:54;4.67;;;2.60;;
84353;SDS011;74538;43.522;1.516;2024-01-11T11:22:20;5.45;;;2.67;;
84353;SDS011;74538;43.522;1.516;2024-01-11T11:24:45;4.53;;;2.78;;
84353;SDS011;74538;43.522;1.516;2024-01-11T11:27:14;4.70;;;2.90;;
84353;SDS011;74538;43.522;1.516;2024-01-11T11:29:39;3.90;;;2.60;;
84353;SDS011;74538;43.522;1.516;2024-01-11T11:32:05;4.73;;;2.93;;
84353;SDS011;74538;43.522;1.516;2024-01-11T11:34:43;4.70;;;2.60;;
84353;SDS011;74538;43.522;1.516;2024-01-11T11:37:11;4.78;;;2.60;;
84353;SDS011;74538;43.522;1.516;2024-01-11T11:39:37;4.60;;;2.90;;
84353;SDS011;74538;43.522;1.516;2024-01-11T11:42:04;4.47;;;2.60;;
84353;SDS011;74538;43.522;1.516;2024-01-11T11:44:30;4.47;;;2.72;;
84353;SDS011;74538;43.522;1.516;2024-01-11T11:46:56;4.25;;;2.80;;
84353;SDS011;74538;43.522;1.516;2024-01-11T11:52:46;4.80;;;2.73;;
84353;SDS011;74538;43.522;1.516;2024-01-11T11:55:19;4.97;;;2.90;;
84353;SDS011;74538;43.522;1.516;2024-01-11T11:57:45;4.30;;;2.80;;
84353;SDS011;74538;43.522;1.516;2024-01-11T12:00:12;5.05;;;3.20;;
84353;SDS011;74538;43.522;1.516;2024-01-11T12:02:39;4.47;;;2.90;;
84353;SDS011;74538;43.522;1.516;2024-01-11T12:05:06;4.57;;;3.17;;
84353;SDS011;74538;43.522;1.516;2024-01-11T12:07:31;5.07;;;3.22;;
84353;SDS011;74538;43.522;1.516;2024-01-11T12:09:57;4.60;;;2.97;;
84353;SDS011;74538;43.522;1.516;2024-01-11T12:12:22;4.95;;;2.90;;
84353;SDS011;74538;43.522;1.516;2024-01-11T12:14:48;4.70;;;2.93;;
84353;SDS011;74538;43.522;1.516;2024-01-11T12:17:17;4.55;;;2.70;;
84353;SDS011;74538;43.522;1.516;2024-01-11T12:19:43;4.90;;;2.40;;
84353;SDS011;74538;43.522;1.516;2024-01-11T12:22:08;5.00;;;3.00;;
84353;SDS011;74538;43.522;1.516;2024-01-11T12:24:34;4.47;;;2.47;;
84353;SDS011;74538;43.522;1.516;2024-01-11T12:26:59;4.30;;;2.73;;
84353;SDS011;74538;43.522;1.516;2024-01-11T12:29:27;5.18;;;2.95;;
84353;SDS011;74538;43.522;1.516;2024-01-11T12:31:54;4.93;;;3.15;;
84353;SDS011;74538;43.522;1.516;2024-01-11T12:34:21;4.43;;;3.10;;
84353;SDS011;74538;43.522;1.516;2024-01-11T12:36:48;4.90;;;3.05;;
84353;SDS011;74538;43.522;1.516;2024-01-11T12:39:14;4.85;;;3.40;;
84353;SDS011;74538;43.522;1.516;2024-01-11T12:41:41;4.55;;;3.17;;
84353;SDS011;74538;43.522;1.516;2024-01-11T12:44:08;5.07;;;3.33;;
84353;SDS011;74538;43.522;1.516;2024-01-11T12:46:33;5.35;;;3.58;;
84353;SDS011;74538;43.522;1.516;2024-01-11T12:48:59;5.17;;;3.50;;
84353;SDS011;74538;43.522;1.516;2024-01-11T12:51:25;4.93;;;3.70;;
84353;SDS011;74538;43.522;1.516;2024-01-11T12:53:51;5.47;;;3.58;;
84353;SDS011;74538;43.522;1.516;2024-01-11T12:56:18;5.50;;;3.33;;
84353;SDS011;74538;43.522;1.516;2024-01-11T12:58:46;4.85;;;3.40;;
84353;SDS011;74538;43.522;1.516;2024-01-11T13:01:12;5.37;;;3.60;;
84353;SDS011;74538;43.522;1.516;2024-01-11T13:03:39;4.90;;;3.50;;
84353;SDS011;74538;43.522;1.516;2024-01-11T13:06:08;5.50;;;3.40;;
84353;SDS011;74538;43.522;1.516;2024-01-11T13:08:34;4.88;;;3.35;;
84353;SDS011;74538;43.522;1.516;2024-01-11T13:11:01;6.07;;;3.72;;
84353;SDS011;74538;43.522;1.516;2024-01-11T13:13:31;5.27;;;3.10;;
84353;SDS011;74538;43.522;1.516;2024-01-11T13:15:57;5.35;;;3.70;;
84353;SDS011;74538;43.522;1.516;2024-01-11T13:18:23;5.88;;;3.42;;
84353;SDS011;74538;43.522;1.516;2024-01-11T13:20:49;5.40;;;3.63;;
84353;SDS011;74538;43.522;1.516;2024-01-11T13:23:15;5.00;;;3.30;;
84353;SDS011;74538;43.522;1.516;2024-01-11T13:25:46;5.00;;;3.53;;
84353;SDS011;74538;43.522;1.516;2024-01-11T13:28:14;5.53;;;3.40;;
84353;SDS011;74538;43.522;1.516;2024-01-11T13:30:40;5.28;;;3.60;;
84353;SDS011;74538;43.522;1.516;2024-01-11T13:33:07;5.10;;;3.33;;
84353;SDS011;74538;43.522;1.516;2024-01-11T13:35:34;5.53;;;3.63;;
84353;SDS011;74538;43.522;1.516;2024-01-11T13:38:00;6.53;;;3.33;;
84353;SDS011;74538;43.522;1.516;2024-01-11T13:40:26;5.10;;;3.60;;
84353;SDS011;74538;43.522;1.516;2024-01-11T13:42:54;5.25;;;3.40;;
84353;SDS011;74538;43.522;1.516;2024-01-11T13:45:20;5.28;;;3.65;;
84353;SDS011;74538;43.522;1.516;2024-01-11T13:47:46;4.77;;;3.10;;
84353;SDS011;74538;43.522;1.516;2024-01-11T13:50:11;4.43;;;3.10;;
84353;SDS011;74538;43.522;1.516;2024-01-11T13:52:37;5.70;;;4.00;;
84353;SDS011;74538;43.522;1.516;2024-01-11T13:55:03;5.50;;;3.97;;
84353;SDS011;74538;43.522;1.516;2024-01-11T13:57:29;5.50;;;3.33;;
84353;SDS011;74538;43.522;1.516;2024-01-11T13:59:54;5.07;;;3.60;;
84353;SDS011;74538;43.522;1.516;2024-01-11T14:02:20;5.05;;;3.70;;
84353;SDS011;74538;43.522;1.516;2024-01-11T14:04:46;5.47;;;3.13;;
84353;SDS011;74538;43.522;1.516;2024-01-11T14:07:11;5.75;;;3.67;;
84353;SDS011;74538;43.522;1.516;2024-01-11T14:09:37;4.50;;;3.03;;
84353;SDS011;74538;43.522;1.516;2024-01-11T14:12:02;4.80;;;3.30;;
84353;SDS011;74538;43.522;1.516;2024-01-11T14:14:28;6.05;;;3.58;;
84353;SDS011;74538;43.522;1.516;2024-01-11T14:16:53;5.63;;;3.40;;
84353;SDS011;74538;43.522;1.516;2024-01-11T14:19:19;5.50;;;3.47;;
84353;SDS011;74538;43.522;1.516;2024-01-11T14:21:44;5.10;;;3.27;;
84353;SDS011;74538;43.522;1.516;2024-01-11T14:24:10;5.43;;;3.65;;
84353;SDS011;74538;43.522;1.516;2024-01-11T14:26:35;5.00;;;3.43;;
84353;SDS011;74538;43.522;1.516;2024-01-11T14:29:01;4.57;;;3.20;;
84353;SDS011;74538;43.522;1.516;2024-01-11T14:31:27;4.93;;;3.47;;
84353;SDS011;74538;43.522;1.516;2024-01-11T14:33:52;5.00;;;3.37;;
84353;SDS011;74538;43.522;1.516;2024-01-11T14:36:18;4.70;;;3.43;;
84353;SDS011;74538;43.522;1.516;2024-01-11T14:38:43;5.07;;;3.10;;
84353;SDS011;74538;43.522;1.516;2024-01-11T14:41:09;5.43;;;3.60;;
84353;SDS011;74538;43.522;1.516;2024-01-11T14:43:35;4.43;;;3.20;;
84353;SDS011;74538;43.522;1.516;2024-01-11T14:46:01;5.30;;;3.40;;
84353;SDS011;74538;43.522;1.516;2024-01-11T14:48:27;5.15;;;3.63;;